sensor_id;sensor_type;location;lat;lon;timestamp;P1;durP1;ratioP1;P2;durP2;ratioP2
26042;SDS011;13818;52.156;5.382;2023-03-01T00:02:13;15.10;;;7.20;;
26042;SDS011;13818;52.156;5.382;2023-03-01T00:04:39;13.63;;;7.20;;
26042;SDS011;13818;52.156;5.382;2023-03-01T00:07:07;11.40;;;6.18;;
26042;SDS011;13818;52.156;5.382;2023-03-01T00:09:35;17.70;;;7.65;;
26042;SDS011;13818;52.156;5.382;2023-03-01T00:12:02;18.05;;;7.30;;
26042;SDS011;13818;52.156;5.382;2023-03-01T00:14:29;15.45;;;7.00;;
26042;SDS011;13818;52.156;5.382;2023-03-01T00:16:55;14.50;;;7.00;;
26042;SDS011;13818;52.156;5.382;2023-03-01T00:19:22;16.50;;;7.38;;
26042;SDS011;13818;52.156;5.382;2023-03-01T00:21:49;17.42;;;7.50;;
26042;SDS011;13818;52.156;5.382;2023-03-01T00:24:16;16.00;;;7.25;;
26042;SDS011;13818;52.156;5.382;2023-03-01T00:26:43;15.65;;;7.82;;
26042;SDS011;13818;52.156;5.382;2023-03-01T00:29:10;12.80;;;6.55;;
26042;SDS011;13818;52.156;5.382;2023-03-01T00:31:36;13.60;;;7.03;;
26042;SDS011;13818;52.156;5.382;2023-03-01T00:34:03;16.77;;;7.93;;
26042;SDS011;13818;52.156;5.382;2023-03-01T00:36:32;16.88;;;8.20;;
26042;SDS011;13818;52.156;5.382;2023-03-01T00:39:00;19.30;;;7.80;;
26042;SDS011;13818;52.156;5.382;2023-03-01T00:41:31;15.95;;;7.75;;
26042;SDS011;13818;52.156;5.382;2023-03-01T00:43:59;14.90;;;7.28;;
26042;SDS011;13818;52.156;5.382;2023-03-01T00:46:26;17.50;;;8.00;;
26042;SDS011;13818;52.156;5.382;2023-03-01T00:48:55;20.80;;;7.65;;
26042;SDS011;13818;52.156;5.382;2023-03-01T00:51:24;22.15;;;7.63;;
26042;SDS011;13818;52.156;5.382;2023-03-01T00:53:52;19.55;;;8.38;;
26042;SDS011;13818;52.156;5.382;2023-03-01T00:56:19;15.82;;;7.55;;
26042;SDS011;13818;52.156;5.382;2023-03-01T00:58:47;17.85;;;7.68;;
26042;SDS011;13818;52.156;5.382;2023-03-01T01:01:15;18.25;;;7.95;;
26042;SDS011;13818;52.156;5.382;2023-03-01T01:03:46;16.25;;;7.80;;
26042;SDS011;13818;52.156;5.382;2023-03-01T01:06:15;15.93;;;8.25;;
26042;SDS011;13818;52.156;5.382;2023-03-01T01:08:42;16.63;;;9.13;;
26042;SDS011;13818;52.156;5.382;2023-03-01T01:11:09;15.93;;;8.15;;
26042;SDS011;13818;52.156;5.382;2023-03-01T01:13:36;18.25;;;8.68;;
26042;SDS011;13818;52.156;5.382;2023-03-01T01:16:04;16.27;;;8.20;;
26042;SDS011;13818;52.156;5.382;2023-03-01T01:18:32;18.83;;;8.52;;
26042;SDS011;13818;52.156;5.382;2023-03-01T01:21:02;12.88;;;6.35;;
26042;SDS011;13818;52.156;5.382;2023-03-01T01:23:30;18.10;;;8.15;;
26042;SDS011;13818;52.156;5.382;2023-03-01T01:25:57;16.95;;;7.35;;
26042;SDS011;13818;52.156;5.382;2023-03-01T01:28:23;16.50;;;8.25;;
26042;SDS011;13818;52.156;5.382;2023-03-01T01:30:50;16.58;;;7.65;;
26042;SDS011;13818;52.156;5.382;2023-03-01T01:33:17;16.77;;;7.80;;
26042;SDS011;13818;52.156;5.382;2023-03-01T01:35:44;15.88;;;7.53;;
26042;SDS011;13818;52.156;5.382;2023-03-01T01:38:11;19.70;;;8.20;;
26042;SDS011;13818;52.156;5.382;2023-03-01T01:40:42;17.63;;;7.75;;
26042;SDS011;13818;52.156;5.382;2023-03-01T01:43:11;17.10;;;8.00;;
26042;SDS011;13818;52.156;5.382;2023-03-01T01:45:43;17.45;;;8.55;;
26042;SDS011;13818;52.156;5.382;2023-03-01T01:48:10;16.30;;;8.73;;
26042;SDS011;13818;52.156;5.382;2023-03-01T01:50:44;17.25;;;8.20;;
26042;SDS011;13818;52.156;5.382;2023-03-01T01:53:14;19.05;;;8.02;;
26042;SDS011;13818;52.156;5.382;2023-03-01T01:55:44;20.77;;;9.10;;
26042;SDS011;13818;52.156;5.382;2023-03-01T01:58:14;19.92;;;8.57;;
26042;SDS011;13818;52.156;5.382;2023-03-01T02:00:43;15.35;;;8.48;;
26042;SDS011;13818;52.156;5.382;2023-03-01T02:03:11;18.60;;;7.32;;
26042;SDS011;13818;52.156;5.382;2023-03-01T02:05:41;15.30;;;7.78;;
26042;SDS011;13818;52.156;5.382;2023-03-01T02:08:13;22.13;;;8.73;;
26042;SDS011;13818;52.156;5.382;2023-03-01T02:10:43;12.70;;;7.43;;
26042;SDS011;13818;52.156;5.382;2023-03-01T02:13:11;22.05;;;9.02;;
26042;SDS011;13818;52.156;5.382;2023-03-01T02:15:39;17.40;;;8.73;;
26042;SDS011;13818;52.156;5.382;2023-03-01T02:18:09;19.20;;;8.65;;
26042;SDS011;13818;52.156;5.382;2023-03-01T02:20:39;17.83;;;9.77;;
26042;SDS011;13818;52.156;5.382;2023-03-01T02:23:12;19.13;;;8.23;;
26042;SDS011;13818;52.156;5.382;2023-03-01T02:25:42;25.80;;;9.32;;
26042;SDS011;13818;52.156;5.382;2023-03-01T02:31:02;17.60;;;7.80;;
26042;SDS011;13818;52.156;5.382;2023-03-01T02:33:48;16.85;;;9.30;;
26042;SDS011;13818;52.156;5.382;2023-03-01T02:36:15;17.70;;;8.85;;
26042;SDS011;13818;52.156;5.382;2023-03-01T02:38:45;20.83;;;8.68;;
26042;SDS011;13818;52.156;5.382;2023-03-01T02:41:15;15.07;;;8.37;;
26042;SDS011;13818;52.156;5.382;2023-03-01T02:43:45;17.67;;;8.75;;
26042;SDS011;13818;52.156;5.382;2023-03-01T02:46:14;18.83;;;9.55;;
26042;SDS011;13818;52.156;5.382;2023-03-01T02:48:43;17.98;;;8.88;;
26042;SDS011;13818;52.156;5.382;2023-03-01T02:51:15;19.50;;;9.07;;
26042;SDS011;13818;52.156;5.382;2023-03-01T02:53:53;18.60;;;8.65;;
26042;SDS011;13818;52.156;5.382;2023-03-01T02:56:29;17.17;;;9.05;;
26042;SDS011;13818;52.156;5.382;2023-03-01T02:58:57;18.52;;;8.70;;
26042;SDS011;13818;52.156;5.382;2023-03-01T03:01:26;18.13;;;9.93;;
26042;SDS011;13818;52.156;5.382;2023-03-01T03:04:01;19.58;;;8.85;;
26042;SDS011;13818;52.156;5.382;2023-03-01T03:06:28;23.30;;;9.68;;
26042;SDS011;13818;52.156;5.382;2023-03-01T03:08:55;21.33;;;9.77;;
26042;SDS011;13818;52.156;5.382;2023-03-01T03:11:21;18.08;;;9.65;;
26042;SDS011;13818;52.156;5.382;2023-03-01T03:13:48;24.70;;;10.68;;
26042;SDS011;13818;52.156;5.382;2023-03-01T03:16:16;17.90;;;8.75;;
26042;SDS011;13818;52.156;5.382;2023-03-01T03:18:43;22.83;;;9.88;;
26042;SDS011;13818;52.156;5.382;2023-03-01T03:21:10;26.27;;;9.32;;
26042;SDS011;13818;52.156;5.382;2023-03-01T03:23:38;24.38;;;11.13;;
26042;SDS011;13818;52.156;5.382;2023-03-01T03:26:05;21.27;;;9.95;;
26042;SDS011;13818;52.156;5.382;2023-03-01T03:28:31;22.17;;;9.55;;
26042;SDS011;13818;52.156;5.382;2023-03-01T03:30:58;23.27;;;10.05;;
26042;SDS011;13818;52.156;5.382;2023-03-01T03:33:29;22.10;;;10.48;;
26042;SDS011;13818;52.156;5.382;2023-03-01T03:35:56;21.60;;;9.50;;
26042;SDS011;13818;52.156;5.382;2023-03-01T03:38:23;18.83;;;8.60;;
26042;SDS011;13818;52.156;5.382;2023-03-01T03:40:51;20.02;;;9.52;;
26042;SDS011;13818;52.156;5.382;2023-03-01T03:43:19;24.53;;;9.90;;
26042;SDS011;13818;52.156;5.382;2023-03-01T03:45:47;24.25;;;10.90;;
26042;SDS011;13818;52.156;5.382;2023-03-01T03:48:15;20.67;;;9.87;;
26042;SDS011;13818;52.156;5.382;2023-03-01T03:50:47;19.23;;;9.68;;
26042;SDS011;13818;52.156;5.382;2023-03-01T03:53:15;22.77;;;10.98;;
26042;SDS011;13818;52.156;5.382;2023-03-01T03:55:41;25.45;;;10.95;;
26042;SDS011;13818;52.156;5.382;2023-03-01T03:58:09;26.95;;;11.15;;
26042;SDS011;13818;52.156;5.382;2023-03-01T04:00:37;28.45;;;10.88;;
26042;SDS011;13818;52.156;5.382;2023-03-01T04:03:05;24.77;;;10.25;;
26042;SDS011;13818;52.156;5.382;2023-03-01T04:05:32;24.48;;;10.82;;
26042;SDS011;13818;52.156;5.382;2023-03-01T04:08:00;21.50;;;10.32;;
26042;SDS011;13818;52.156;5.382;2023-03-01T04:10:27;24.67;;;11.02;;
26042;SDS011;13818;52.156;5.382;2023-03-01T04:12:55;23.00;;;10.30;;
26042;SDS011;13818;52.156;5.382;2023-03-01T04:15:22;25.50;;;11.18;;
26042;SDS011;13818;52.156;5.382;2023-03-01T04:17:50;26.88;;;10.95;;
26042;SDS011;13818;52.156;5.382;2023-03-01T04:20:18;25.73;;;11.43;;
26042;SDS011;13818;52.156;5.382;2023-03-01T04:22:50;23.85;;;11.20;;
26042;SDS011;13818;52.156;5.382;2023-03-01T04:25:18;25.23;;;12.05;;
26042;SDS011;13818;52.156;5.382;2023-03-01T04:27:45;25.20;;;12.18;;
26042;SDS011;13818;52.156;5.382;2023-03-01T04:30:12;28.50;;;11.60;;
26042;SDS011;13818;52.156;5.382;2023-03-01T04:32:38;26.65;;;12.13;;
26042;SDS011;13818;52.156;5.382;2023-03-01T04:35:05;24.10;;;11.63;;
26042;SDS011;13818;52.156;5.382;2023-03-01T04:37:32;29.23;;;12.30;;
26042;SDS011;13818;52.156;5.382;2023-03-01T04:39:59;24.58;;;11.43;;
26042;SDS011;13818;52.156;5.382;2023-03-01T04:42:27;25.17;;;11.35;;
26042;SDS011;13818;52.156;5.382;2023-03-01T04:44:54;29.75;;;11.73;;
26042;SDS011;13818;52.156;5.382;2023-03-01T04:47:20;31.10;;;12.05;;
26042;SDS011;13818;52.156;5.382;2023-03-01T04:49:47;23.98;;;11.73;;
26042;SDS011;13818;52.156;5.382;2023-03-01T04:52:13;29.25;;;13.23;;
26042;SDS011;13818;52.156;5.382;2023-03-01T04:54:40;28.00;;;12.25;;
26042;SDS011;13818;52.156;5.382;2023-03-01T04:57:06;28.25;;;12.27;;
26042;SDS011;13818;52.156;5.382;2023-03-01T04:59:34;25.02;;;11.20;;
26042;SDS011;13818;52.156;5.382;2023-03-01T05:02:01;22.92;;;11.82;;
26042;SDS011;13818;52.156;5.382;2023-03-01T05:04:30;26.95;;;11.65;;
26042;SDS011;13818;52.156;5.382;2023-03-01T05:06:56;22.08;;;11.57;;
26042;SDS011;13818;52.156;5.382;2023-03-01T05:09:23;29.27;;;12.68;;
26042;SDS011;13818;52.156;5.382;2023-03-01T05:11:50;30.73;;;13.05;;
26042;SDS011;13818;52.156;5.382;2023-03-01T05:14:16;25.60;;;10.85;;
26042;SDS011;13818;52.156;5.382;2023-03-01T05:16:44;27.00;;;11.82;;
26042;SDS011;13818;52.156;5.382;2023-03-01T05:19:11;24.30;;;11.30;;
26042;SDS011;13818;52.156;5.382;2023-03-01T05:21:40;26.33;;;11.05;;
26042;SDS011;13818;52.156;5.382;2023-03-01T05:24:21;24.60;;;10.50;;
26042;SDS011;13818;52.156;5.382;2023-03-01T05:26:47;26.27;;;11.57;;
26042;SDS011;13818;52.156;5.382;2023-03-01T05:29:16;20.73;;;11.30;;
26042;SDS011;13818;52.156;5.382;2023-03-01T05:31:45;26.73;;;11.35;;
26042;SDS011;13818;52.156;5.382;2023-03-01T05:34:12;24.45;;;11.05;;
26042;SDS011;13818;52.156;5.382;2023-03-01T05:36:38;27.90;;;12.35;;
26042;SDS011;13818;52.156;5.382;2023-03-01T05:39:04;25.25;;;11.73;;
26042;SDS011;13818;52.156;5.382;2023-03-01T05:41:31;26.80;;;13.02;;
26042;SDS011;13818;52.156;5.382;2023-03-01T05:43:57;26.02;;;12.18;;
26042;SDS011;13818;52.156;5.382;2023-03-01T05:46:24;28.38;;;11.77;;
26042;SDS011;13818;52.156;5.382;2023-03-01T05:48:52;28.02;;;12.52;;
26042;SDS011;13818;52.156;5.382;2023-03-01T05:51:18;29.42;;;11.52;;
26042;SDS011;13818;52.156;5.382;2023-03-01T05:53:44;30.35;;;13.60;;
26042;SDS011;13818;52.156;5.382;2023-03-01T05:56:11;30.15;;;13.07;;
26042;SDS011;13818;52.156;5.382;2023-03-01T05:58:37;30.90;;;12.65;;
26042;SDS011;13818;52.156;5.382;2023-03-01T06:01:04;24.65;;;11.77;;
26042;SDS011;13818;52.156;5.382;2023-03-01T06:03:31;27.98;;;12.20;;
26042;SDS011;13818;52.156;5.382;2023-03-01T06:05:58;34.95;;;12.77;;
26042;SDS011;13818;52.156;5.382;2023-03-01T06:08:25;30.63;;;11.70;;
26042;SDS011;13818;52.156;5.382;2023-03-01T06:10:52;27.25;;;12.30;;
26042;SDS011;13818;52.156;5.382;2023-03-01T06:13:19;29.48;;;11.15;;
26042;SDS011;13818;52.156;5.382;2023-03-01T06:15:45;27.73;;;12.52;;
26042;SDS011;13818;52.156;5.382;2023-03-01T06:18:12;34.38;;;12.02;;
26042;SDS011;13818;52.156;5.382;2023-03-01T06:20:39;31.55;;;11.82;;
26042;SDS011;13818;52.156;5.382;2023-03-01T06:23:08;25.73;;;12.02;;
26042;SDS011;13818;52.156;5.382;2023-03-01T06:25:34;29.63;;;12.70;;
26042;SDS011;13818;52.156;5.382;2023-03-01T06:28:01;29.42;;;12.20;;
26042;SDS011;13818;52.156;5.382;2023-03-01T06:30:29;34.25;;;13.00;;
26042;SDS011;13818;52.156;5.382;2023-03-01T06:32:56;31.77;;;13.15;;
26042;SDS011;13818;52.156;5.382;2023-03-01T06:35:25;29.00;;;11.82;;
26042;SDS011;13818;52.156;5.382;2023-03-01T06:37:55;32.88;;;12.27;;
26042;SDS011;13818;52.156;5.382;2023-03-01T06:40:24;32.50;;;11.75;;
26042;SDS011;13818;52.156;5.382;2023-03-01T06:42:51;28.17;;;11.45;;
26042;SDS011;13818;52.156;5.382;2023-03-01T06:45:18;26.88;;;12.20;;
26042;SDS011;13818;52.156;5.382;2023-03-01T06:47:46;26.85;;;12.10;;
26042;SDS011;13818;52.156;5.382;2023-03-01T06:50:13;40.50;;;12.32;;
26042;SDS011;13818;52.156;5.382;2023-03-01T06:52:42;29.75;;;12.23;;
26042;SDS011;13818;52.156;5.382;2023-03-01T06:55:10;27.75;;;11.98;;
26042;SDS011;13818;52.156;5.382;2023-03-01T06:57:39;23.45;;;10.45;;
26042;SDS011;13818;52.156;5.382;2023-03-01T07:00:07;22.95;;;10.43;;
26042;SDS011;13818;52.156;5.382;2023-03-01T07:02:34;27.35;;;11.32;;
26042;SDS011;13818;52.156;5.382;2023-03-01T07:05:01;25.13;;;11.75;;
26042;SDS011;13818;52.156;5.382;2023-03-01T07:07:27;29.55;;;12.43;;
26042;SDS011;13818;52.156;5.382;2023-03-01T07:09:53;34.92;;;13.27;;
26042;SDS011;13818;52.156;5.382;2023-03-01T07:12:20;29.33;;;12.38;;
26042;SDS011;13818;52.156;5.382;2023-03-01T07:14:48;27.92;;;12.50;;
26042;SDS011;13818;52.156;5.382;2023-03-01T07:17:15;31.10;;;13.07;;
26042;SDS011;13818;52.156;5.382;2023-03-01T07:19:42;26.40;;;11.88;;
26042;SDS011;13818;52.156;5.382;2023-03-01T07:22:09;26.90;;;12.25;;
26042;SDS011;13818;52.156;5.382;2023-03-01T07:24:36;26.58;;;11.40;;
26042;SDS011;13818;52.156;5.382;2023-03-01T07:27:03;24.30;;;11.52;;
26042;SDS011;13818;52.156;5.382;2023-03-01T07:29:30;26.20;;;12.70;;
26042;SDS011;13818;52.156;5.382;2023-03-01T07:31:58;25.58;;;12.43;;
26042;SDS011;13818;52.156;5.382;2023-03-01T07:34:24;28.10;;;13.00;;
26042;SDS011;13818;52.156;5.382;2023-03-01T07:36:51;25.83;;;12.15;;
26042;SDS011;13818;52.156;5.382;2023-03-01T07:39:17;28.45;;;12.40;;
26042;SDS011;13818;52.156;5.382;2023-03-01T07:41:44;31.52;;;13.05;;
26042;SDS011;13818;52.156;5.382;2023-03-01T07:44:10;30.17;;;13.60;;
26042;SDS011;13818;52.156;5.382;2023-03-01T07:46:37;31.58;;;13.38;;
26042;SDS011;13818;52.156;5.382;2023-03-01T07:49:05;29.52;;;12.82;;
26042;SDS011;13818;52.156;5.382;2023-03-01T07:51:31;29.48;;;13.05;;
26042;SDS011;13818;52.156;5.382;2023-03-01T07:53:59;31.75;;;12.73;;
26042;SDS011;13818;52.156;5.382;2023-03-01T07:56:25;25.23;;;12.07;;
26042;SDS011;13818;52.156;5.382;2023-03-01T07:58:52;31.15;;;12.65;;
26042;SDS011;13818;52.156;5.382;2023-03-01T08:01:19;25.83;;;12.52;;
26042;SDS011;13818;52.156;5.382;2023-03-01T08:03:46;30.73;;;13.10;;
26042;SDS011;13818;52.156;5.382;2023-03-01T08:06:16;28.95;;;10.75;;
26042;SDS011;13818;52.156;5.382;2023-03-01T08:11:10;24.80;;;10.98;;
26042;SDS011;13818;52.156;5.382;2023-03-01T08:13:38;27.23;;;12.10;;
26042;SDS011;13818;52.156;5.382;2023-03-01T08:16:05;28.67;;;11.13;;
26042;SDS011;13818;52.156;5.382;2023-03-01T08:21:03;23.38;;;12.20;;
26042;SDS011;13818;52.156;5.382;2023-03-01T08:23:32;23.92;;;10.98;;
26042;SDS011;13818;52.156;5.382;2023-03-01T08:26:05;20.60;;;9.02;;
26042;SDS011;13818;52.156;5.382;2023-03-01T08:28:33;24.38;;;11.02;;
26042;SDS011;13818;52.156;5.382;2023-03-01T08:31:00;23.23;;;11.00;;
26042;SDS011;13818;52.156;5.382;2023-03-01T08:33:27;21.92;;;11.10;;
26042;SDS011;13818;52.156;5.382;2023-03-01T08:36:01;24.48;;;11.40;;
26042;SDS011;13818;52.156;5.382;2023-03-01T08:38:29;22.05;;;10.13;;
26042;SDS011;13818;52.156;5.382;2023-03-01T08:40:58;24.05;;;10.68;;
26042;SDS011;13818;52.156;5.382;2023-03-01T08:43:26;19.73;;;9.95;;
26042;SDS011;13818;52.156;5.382;2023-03-01T08:45:52;15.48;;;7.93;;
26042;SDS011;13818;52.156;5.382;2023-03-01T08:48:18;15.82;;;7.28;;
26042;SDS011;13818;52.156;5.382;2023-03-01T08:50:45;15.63;;;6.68;;
26042;SDS011;13818;52.156;5.382;2023-03-01T08:53:12;13.70;;;6.60;;
26042;SDS011;13818;52.156;5.382;2023-03-01T08:55:38;11.32;;;5.50;;
26042;SDS011;13818;52.156;5.382;2023-03-01T08:58:06;14.30;;;5.88;;
26042;SDS011;13818;52.156;5.382;2023-03-01T09:00:33;14.10;;;5.43;;
26042;SDS011;13818;52.156;5.382;2023-03-01T09:03:00;12.30;;;5.45;;
26042;SDS011;13818;52.156;5.382;2023-03-01T09:05:27;13.90;;;5.80;;
26042;SDS011;13818;52.156;5.382;2023-03-01T09:07:53;15.48;;;5.50;;
26042;SDS011;13818;52.156;5.382;2023-03-01T09:10:20;12.07;;;5.65;;
26042;SDS011;13818;52.156;5.382;2023-03-01T09:12:46;10.00;;;4.85;;
26042;SDS011;13818;52.156;5.382;2023-03-01T09:15:14;11.73;;;5.45;;
26042;SDS011;13818;52.156;5.382;2023-03-01T09:17:40;11.32;;;5.75;;
26042;SDS011;13818;52.156;5.382;2023-03-01T09:20:07;14.40;;;5.10;;
26042;SDS011;13818;52.156;5.382;2023-03-01T09:22:35;9.10;;;4.97;;
26042;SDS011;13818;52.156;5.382;2023-03-01T09:25:01;14.90;;;5.10;;
26042;SDS011;13818;52.156;5.382;2023-03-01T09:27:28;10.85;;;4.80;;
26042;SDS011;13818;52.156;5.382;2023-03-01T09:29:54;9.13;;;4.55;;
26042;SDS011;13818;52.156;5.382;2023-03-01T09:32:23;9.80;;;4.28;;
26042;SDS011;13818;52.156;5.382;2023-03-01T09:34:50;6.88;;;3.45;;
26042;SDS011;13818;52.156;5.382;2023-03-01T09:37:30;8.07;;;3.83;;
26042;SDS011;13818;52.156;5.382;2023-03-01T09:39:57;7.38;;;3.65;;
26042;SDS011;13818;52.156;5.382;2023-03-01T09:42:23;7.00;;;3.45;;
26042;SDS011;13818;52.156;5.382;2023-03-01T09:44:51;8.50;;;3.78;;
26042;SDS011;13818;52.156;5.382;2023-03-01T09:47:25;8.60;;;4.10;;
26042;SDS011;13818;52.156;5.382;2023-03-01T09:49:57;8.63;;;4.13;;
26042;SDS011;13818;52.156;5.382;2023-03-01T09:52:29;9.45;;;4.15;;
26042;SDS011;13818;52.156;5.382;2023-03-01T09:55:08;12.52;;;3.75;;
26042;SDS011;13818;52.156;5.382;2023-03-01T09:57:38;8.40;;;3.55;;
26042;SDS011;13818;52.156;5.382;2023-03-01T10:00:27;7.43;;;3.22;;
26042;SDS011;13818;52.156;5.382;2023-03-01T10:03:07;6.90;;;2.83;;
26042;SDS011;13818;52.156;5.382;2023-03-01T10:05:43;10.45;;;3.30;;
26042;SDS011;13818;52.156;5.382;2023-03-01T10:11:14;5.80;;;2.55;;
26042;SDS011;13818;52.156;5.382;2023-03-01T10:16:19;3.65;;;1.50;;
26042;SDS011;13818;52.156;5.382;2023-03-01T10:18:51;8.35;;;2.92;;
26042;SDS011;13818;52.156;5.382;2023-03-01T10:21:21;7.47;;;2.40;;
26042;SDS011;13818;52.156;5.382;2023-03-01T10:23:49;4.65;;;1.85;;
26042;SDS011;13818;52.156;5.382;2023-03-01T10:26:22;4.78;;;2.20;;
26042;SDS011;13818;52.156;5.382;2023-03-01T10:29:01;9.57;;;2.45;;
26042;SDS011;13818;52.156;5.382;2023-03-01T10:31:33;7.90;;;2.38;;
26042;SDS011;13818;52.156;5.382;2023-03-01T10:34:09;5.97;;;2.08;;
26042;SDS011;13818;52.156;5.382;2023-03-01T10:36:37;6.07;;;2.63;;
26042;SDS011;13818;52.156;5.382;2023-03-01T10:39:11;9.03;;;3.10;;
26042;SDS011;13818;52.156;5.382;2023-03-01T10:41:44;7.10;;;2.90;;
26042;SDS011;13818;52.156;5.382;2023-03-01T10:44:34;7.47;;;2.50;;
26042;SDS011;13818;52.156;5.382;2023-03-01T10:47:03;6.05;;;2.85;;
26042;SDS011;13818;52.156;5.382;2023-03-01T10:49:31;5.53;;;2.78;;
26042;SDS011;13818;52.156;5.382;2023-03-01T10:51:58;7.03;;;3.30;;
26042;SDS011;13818;52.156;5.382;2023-03-01T10:54:43;6.53;;;2.55;;
26042;SDS011;13818;52.156;5.382;2023-03-01T10:57:24;4.43;;;2.10;;
26042;SDS011;13818;52.156;5.382;2023-03-01T11:00:00;3.53;;;2.05;;
26042;SDS011;13818;52.156;5.382;2023-03-01T11:02:30;8.23;;;1.88;;
26042;SDS011;13818;52.156;5.382;2023-03-01T11:05:00;5.53;;;1.70;;
26042;SDS011;13818;52.156;5.382;2023-03-01T11:07:46;3.70;;;2.13;;
26042;SDS011;13818;52.156;5.382;2023-03-01T11:10:15;6.43;;;2.20;;
26042;SDS011;13818;52.156;5.382;2023-03-01T11:12:43;2.55;;;1.23;;
26042;SDS011;13818;52.156;5.382;2023-03-01T11:15:15;4.68;;;1.88;;
26042;SDS011;13818;52.156;5.382;2023-03-01T11:17:47;3.90;;;1.88;;
26042;SDS011;13818;52.156;5.382;2023-03-01T11:20:18;3.75;;;1.98;;
26042;SDS011;13818;52.156;5.382;2023-03-01T11:22:50;3.45;;;1.80;;
26042;SDS011;13818;52.156;5.382;2023-03-01T11:25:20;5.88;;;2.53;;
26042;SDS011;13818;52.156;5.382;2023-03-01T11:27:51;7.47;;;2.88;;
26042;SDS011;13818;52.156;5.382;2023-03-01T11:30:20;5.45;;;2.40;;
26042;SDS011;13818;52.156;5.382;2023-03-01T11:32:52;7.47;;;2.63;;
26042;SDS011;13818;52.156;5.382;2023-03-01T11:35:28;3.03;;;1.92;;
26042;SDS011;13818;52.156;5.382;2023-03-01T11:37:59;4.60;;;2.03;;
26042;SDS011;13818;52.156;5.382;2023-03-01T11:40:37;5.07;;;2.00;;
26042;SDS011;13818;52.156;5.382;2023-03-01T11:43:09;5.18;;;2.05;;
26042;SDS011;13818;52.156;5.382;2023-03-01T11:45:46;3.28;;;1.90;;
26042;SDS011;13818;52.156;5.382;2023-03-01T11:48:38;5.82;;;2.15;;
26042;SDS011;13818;52.156;5.382;2023-03-01T11:51:18;7.30;;;2.80;;
26042;SDS011;13818;52.156;5.382;2023-03-01T11:53:53;4.82;;;2.35;;
26042;SDS011;13818;52.156;5.382;2023-03-01T11:56:31;3.83;;;1.88;;
26042;SDS011;13818;52.156;5.382;2023-03-01T12:02:13;4.97;;;2.13;;
26042;SDS011;13818;52.156;5.382;2023-03-01T12:05:06;4.05;;;1.75;;
26042;SDS011;13818;52.156;5.382;2023-03-01T12:07:46;3.75;;;2.20;;
26042;SDS011;13818;52.156;5.382;2023-03-01T12:12:58;4.50;;;2.43;;
26042;SDS011;13818;52.156;5.382;2023-03-01T12:15:44;5.82;;;2.55;;
26042;SDS011;13818;52.156;5.382;2023-03-01T12:21:05;6.70;;;2.75;;
26042;SDS011;13818;52.156;5.382;2023-03-01T12:23:52;7.25;;;2.42;;
26042;SDS011;13818;52.156;5.382;2023-03-01T12:26:30;7.22;;;2.33;;
26042;SDS011;13818;52.156;5.382;2023-03-01T12:29:02;3.88;;;1.92;;
26042;SDS011;13818;52.156;5.382;2023-03-01T12:31:56;6.22;;;2.85;;
26042;SDS011;13818;52.156;5.382;2023-03-01T12:34:35;6.37;;;2.67;;
26042;SDS011;13818;52.156;5.382;2023-03-01T12:37:18;7.15;;;2.85;;
26042;SDS011;13818;52.156;5.382;2023-03-01T12:39:56;5.03;;;2.75;;
26042;SDS011;13818;52.156;5.382;2023-03-01T12:42:43;7.88;;;2.60;;
26042;SDS011;13818;52.156;5.382;2023-03-01T12:48:21;5.15;;;2.20;;
26042;SDS011;13818;52.156;5.382;2023-03-01T12:50:58;6.57;;;2.47;;
26042;SDS011;13818;52.156;5.382;2023-03-01T12:53:28;6.47;;;2.65;;
26042;SDS011;13818;52.156;5.382;2023-03-01T12:56:00;7.72;;;2.38;;
26042;SDS011;13818;52.156;5.382;2023-03-01T12:58:31;7.88;;;3.20;;
26042;SDS011;13818;52.156;5.382;2023-03-01T13:01:08;8.43;;;2.75;;
26042;SDS011;13818;52.156;5.382;2023-03-01T13:06:46;7.63;;;3.13;;
26042;SDS011;13818;52.156;5.382;2023-03-01T13:09:22;6.57;;;2.25;;
26042;SDS011;13818;52.156;5.382;2023-03-01T13:11:54;4.57;;;2.55;;
26042;SDS011;13818;52.156;5.382;2023-03-01T13:14:36;5.45;;;2.42;;
26042;SDS011;13818;52.156;5.382;2023-03-01T13:17:30;5.03;;;2.42;;
26042;SDS011;13818;52.156;5.382;2023-03-01T13:19:58;5.80;;;2.60;;
26042;SDS011;13818;52.156;5.382;2023-03-01T13:22:26;3.83;;;2.20;;
26042;SDS011;13818;52.156;5.382;2023-03-01T13:27:46;5.32;;;2.40;;
26042;SDS011;13818;52.156;5.382;2023-03-01T13:36:06;5.32;;;2.28;;
26042;SDS011;13818;52.156;5.382;2023-03-01T13:38:37;5.30;;;2.20;;
26042;SDS011;13818;52.156;5.382;2023-03-01T13:41:11;5.22;;;2.60;;
26042;SDS011;13818;52.156;5.382;2023-03-01T13:43:40;6.10;;;3.03;;
26042;SDS011;13818;52.156;5.382;2023-03-01T13:46:08;6.53;;;2.58;;
26042;SDS011;13818;52.156;5.382;2023-03-01T13:48:38;5.65;;;2.78;;
26042;SDS011;13818;52.156;5.382;2023-03-01T13:51:07;6.10;;;2.45;;
26042;SDS011;13818;52.156;5.382;2023-03-01T13:53:39;8.07;;;2.92;;
26042;SDS011;13818;52.156;5.382;2023-03-01T13:56:08;7.22;;;3.13;;
26042;SDS011;13818;52.156;5.382;2023-03-01T13:58:46;8.15;;;2.95;;
26042;SDS011;13818;52.156;5.382;2023-03-01T14:01:21;6.88;;;3.22;;
26042;SDS011;13818;52.156;5.382;2023-03-01T14:03:49;7.40;;;2.63;;
26042;SDS011;13818;52.156;5.382;2023-03-01T14:06:17;10.98;;;3.50;;
26042;SDS011;13818;52.156;5.382;2023-03-01T14:08:48;10.20;;;4.43;;
26042;SDS011;13818;52.156;5.382;2023-03-01T14:14:04;7.78;;;3.03;;
26042;SDS011;13818;52.156;5.382;2023-03-01T14:16:43;5.28;;;2.67;;
26042;SDS011;13818;52.156;5.382;2023-03-01T14:19:19;5.22;;;2.58;;
26042;SDS011;13818;52.156;5.382;2023-03-01T14:21:57;7.57;;;2.90;;
26042;SDS011;13818;52.156;5.382;2023-03-01T14:24:27;4.43;;;2.45;;
26042;SDS011;13818;52.156;5.382;2023-03-01T14:26:55;5.43;;;2.78;;
26042;SDS011;13818;52.156;5.382;2023-03-01T14:29:27;5.38;;;2.42;;
26042;SDS011;13818;52.156;5.382;2023-03-01T14:32:08;5.38;;;2.47;;
26042;SDS011;13818;52.156;5.382;2023-03-01T14:34:36;5.43;;;2.30;;
26042;SDS011;13818;52.156;5.382;2023-03-01T14:37:11;7.88;;;2.72;;
26042;SDS011;13818;52.156;5.382;2023-03-01T14:39:45;6.18;;;2.67;;
26042;SDS011;13818;52.156;5.382;2023-03-01T14:42:11;11.35;;;3.58;;
26042;SDS011;13818;52.156;5.382;2023-03-01T14:44:42;6.35;;;2.97;;
26042;SDS011;13818;52.156;5.382;2023-03-01T14:47:11;9.30;;;3.53;;
26042;SDS011;13818;52.156;5.382;2023-03-01T14:49:40;10.80;;;4.00;;
26042;SDS011;13818;52.156;5.382;2023-03-01T14:52:17;7.95;;;3.65;;
26042;SDS011;13818;52.156;5.382;2023-03-01T14:54:46;9.38;;;2.75;;
26042;SDS011;13818;52.156;5.382;2023-03-01T14:57:15;7.32;;;2.95;;
26042;SDS011;13818;52.156;5.382;2023-03-01T14:59:44;7.07;;;2.55;;
26042;SDS011;13818;52.156;5.382;2023-03-01T15:02:13;9.55;;;2.50;;
26042;SDS011;13818;52.156;5.382;2023-03-01T15:04:45;5.18;;;2.15;;
26042;SDS011;13818;52.156;5.382;2023-03-01T15:07:15;6.68;;;2.50;;
26042;SDS011;13818;52.156;5.382;2023-03-01T15:09:44;7.22;;;2.30;;
26042;SDS011;13818;52.156;5.382;2023-03-01T15:12:25;6.15;;;2.60;;
26042;SDS011;13818;52.156;5.382;2023-03-01T15:18:06;6.25;;;2.20;;
26042;SDS011;13818;52.156;5.382;2023-03-01T15:20:42;9.50;;;4.03;;
26042;SDS011;13818;52.156;5.382;2023-03-01T15:23:18;8.68;;;3.40;;
26042;SDS011;13818;52.156;5.382;2023-03-01T15:25:47;6.75;;;2.83;;
26042;SDS011;13818;52.156;5.382;2023-03-01T15:28:22;5.22;;;2.85;;
26042;SDS011;13818;52.156;5.382;2023-03-01T15:30:57;5.53;;;2.95;;
26042;SDS011;13818;52.156;5.382;2023-03-01T15:33:30;6.47;;;2.85;;
26042;SDS011;13818;52.156;5.382;2023-03-01T15:35:58;5.90;;;2.95;;